createdAt,value
2018-12-14T00:00:43.046Z,30.63
2018-12-14T00:03:21.495Z,30.63
2018-12-14T00:06:00.124Z,30.77
2018-12-14T00:08:35.953Z,25.37
2018-12-14T00:11:12.901Z,29.23
2018-12-14T00:13:49.018Z,29.73
2018-12-14T00:16:24.938Z,28.60
2018-12-14T00:19:01.162Z,29.20
2018-12-14T00:21:37.006Z,28.60
2018-12-14T00:24:13.675Z,28.53
2018-12-14T00:26:49.711Z,27.97
2018-12-14T00:29:26.233Z,26.63
2018-12-14T00:32:02.944Z,27.40
2018-12-14T00:34:39.311Z,26.80
2018-12-14T00:37:15.083Z,27.37
2018-12-14T00:39:51.175Z,28.17
2018-12-14T00:42:27.776Z,28.80
2018-12-14T00:45:03.901Z,25.33
2018-12-14T00:47:39.935Z,28.27
2018-12-14T00:50:16.190Z,28.43
2018-12-14T00:52:51.937Z,28.40
2018-12-14T00:55:27.930Z,27.27
2018-12-14T00:58:03.673Z,29.03
2018-12-14T01:00:39.610Z,27.70
2018-12-14T01:03:16.727Z,26.83
2018-12-14T01:05:52.393Z,26.40
2018-12-14T01:08:28.506Z,27.30
2018-12-14T01:11:04.438Z,27.20
2018-12-14T01:13:41.180Z,29.27
2018-12-14T01:16:20.336Z,27.30
2018-12-14T01:18:56.874Z,28.80
2018-12-14T01:21:32.912Z,27.27
2018-12-14T01:24:08.578Z,28.33
2018-12-14T01:26:44.603Z,27.37
2018-12-14T01:29:21.473Z,28.97
2018-12-14T01:31:57.330Z,31.93
2018-12-14T01:34:32.979Z,28.33
2018-12-14T01:37:08.801Z,31.33
2018-12-14T01:39:44.497Z,30.60
2018-12-14T01:42:20.425Z,31.70
2018-12-14T01:44:56.543Z,29.50
2018-12-14T01:47:32.268Z,30.43
2018-12-14T01:50:08.466Z,30.43
2018-12-14T01:52:44.117Z,31.00
2018-12-14T01:55:19.850Z,31.67
2018-12-14T01:57:55.752Z,31.40
2018-12-14T02:00:31.393Z,30.70
2018-12-14T02:03:07.510Z,32.23
2018-12-14T02:05:43.346Z,30.37
2018-12-14T02:08:19.486Z,32.17
2018-12-14T02:10:55.076Z,28.03
2018-12-14T02:13:31.069Z,30.23
2018-12-14T02:16:06.832Z,34.93
2018-12-14T02:18:43.141Z,29.10
2018-12-14T02:21:20.486Z,31.07
2018-12-14T02:23:56.591Z,30.10
2018-12-14T02:26:32.573Z,26.47
2018-12-14T02:29:08.451Z,29.23
2018-12-14T02:31:44.510Z,29.90
2018-12-14T02:34:20.365Z,29.17
2018-12-14T02:36:56.247Z,28.87
2018-12-14T02:39:32.553Z,33.33
2018-12-14T02:42:08.869Z,29.20
2018-12-14T02:44:44.913Z,30.50
2018-12-14T02:47:20.641Z,28.00
2018-12-14T02:49:56.644Z,30.87
2018-12-14T02:52:32.338Z,28.60
2018-12-14T02:55:08.700Z,29.97
2018-12-14T02:57:44.968Z,29.07
2018-12-14T03:00:21.072Z,30.87
2018-12-14T03:02:56.752Z,31.87
2018-12-14T03:05:33.213Z,31.23
2018-12-14T03:08:09.546Z,32.83
2018-12-14T03:10:45.491Z,30.13
2018-12-14T03:13:21.470Z,32.90
2018-12-14T03:15:57.206Z,31.53
2018-12-14T03:18:33.145Z,31.13
2018-12-14T03:21:09.045Z,30.13
2018-12-14T03:23:44.896Z,31.97
2018-12-14T03:26:21.419Z,30.50
2018-12-14T03:28:57.459Z,33.60
2018-12-14T03:31:33.580Z,32.27
2018-12-14T03:34:09.522Z,32.17
2018-12-14T03:36:45.665Z,31.23
2018-12-14T03:39:21.535Z,33.40
2018-12-14T03:41:57.095Z,31.23
2018-12-14T03:44:32.939Z,31.83
2018-12-14T03:47:08.654Z,31.93
2018-12-14T03:49:44.573Z,31.73
2018-12-14T03:52:20.461Z,32.43
2018-12-14T03:54:56.344Z,31.90
2018-12-14T03:57:32.402Z,30.77
2018-12-14T04:00:09.814Z,29.70
2018-12-14T04:02:46.464Z,30.23
2018-12-14T04:05:22.544Z,28.67
2018-12-14T04:07:58.148Z,29.37
2018-12-14T04:10:34.018Z,31.70
2018-12-14T04:13:09.963Z,31.90
2018-12-14T04:15:45.883Z,29.20
2018-12-14T04:18:21.752Z,31.30
2018-12-14T04:20:57.595Z,28.60
2018-12-14T04:23:33.522Z,27.87
2018-12-14T04:26:09.541Z,29.63
2018-12-14T04:28:45.414Z,32.13
2018-12-14T04:31:21.173Z,29.10
2018-12-14T04:33:56.925Z,31.47
2018-12-14T04:36:32.965Z,30.17
2018-12-14T04:39:10.839Z,30.00
2018-12-14T04:41:47.304Z,30.30
2018-12-14T04:44:22.822Z,30.27
2018-12-14T04:46:59.081Z,29.73
2018-12-14T04:49:34.769Z,30.43
2018-12-14T04:52:11.647Z,30.57
2018-12-14T04:54:47.416Z,27.30
2018-12-14T04:57:23.369Z,30.10
2018-12-14T04:59:59.239Z,28.33
2018-12-14T05:02:35.124Z,28.10
2018-12-14T05:05:10.783Z,28.03
2018-12-14T05:07:46.648Z,26.43
2018-12-14T05:10:22.871Z,27.50
2018-12-14T05:12:58.471Z,28.90
2018-12-14T05:15:35.043Z,29.13
2018-12-14T05:18:11.452Z,30.13
2018-12-14T05:20:47.229Z,29.57
2018-12-14T05:23:23.114Z,28.70
2018-12-14T05:25:59.066Z,30.67
2018-12-14T05:28:34.864Z,29.90
2018-12-14T05:31:10.863Z,30.33
2018-12-14T05:33:46.740Z,31.07
2018-12-14T05:36:22.556Z,29.67
2018-12-14T05:38:58.414Z,31.30
2018-12-14T05:41:34.634Z,30.33
2018-12-14T05:44:10.602Z,31.03
2018-12-14T05:46:46.411Z,30.83
2018-12-14T05:49:22.704Z,32.17
2018-12-14T05:51:58.327Z,27.87
2018-12-14T05:54:34.044Z,29.07
2018-12-14T05:57:09.990Z,29.63
2018-12-14T05:59:46.407Z,31.33
2018-12-14T06:02:21.948Z,30.83
2018-12-14T06:04:59.763Z,31.67
2018-12-14T06:07:35.959Z,32.50
2018-12-14T06:10:11.673Z,31.30
2018-12-14T06:12:47.403Z,32.60
2018-12-14T06:15:23.458Z,30.97
2018-12-14T06:17:59.529Z,33.93
2018-12-14T06:20:35.531Z,33.80
2018-12-14T06:23:11.426Z,33.17
2018-12-14T06:25:47.394Z,30.70
2018-12-14T06:28:24.440Z,33.30
2018-12-14T06:31:00.389Z,30.87
2018-12-14T06:33:37.117Z,30.73
2018-12-14T06:36:12.734Z,31.17
2018-12-14T06:38:48.675Z,31.70
2018-12-14T06:41:24.768Z,31.53
2018-12-14T06:44:00.671Z,28.67
2018-12-14T06:46:36.412Z,31.07
2018-12-14T06:49:12.240Z,30.60
2018-12-14T06:51:48.385Z,29.57
2018-12-14T06:54:24.091Z,29.73
2018-12-14T06:57:00.230Z,29.77
2018-12-14T06:59:35.852Z,32.37
2018-12-14T07:02:11.710Z,29.27
2018-12-14T07:04:47.522Z,30.90
2018-12-14T07:07:23.311Z,29.30
2018-12-14T07:09:59.201Z,30.93
2018-12-14T07:12:35.105Z,30.67
2018-12-14T07:15:11.113Z,28.23
2018-12-14T07:17:46.835Z,27.80
2018-12-14T07:20:22.928Z,29.73
2018-12-14T07:22:58.418Z,28.27
2018-12-14T07:25:34.518Z,27.37
2018-12-14T07:28:10.248Z,28.53
2018-12-14T07:30:46.177Z,26.77
2018-12-14T07:33:22.017Z,28.17
2018-12-14T07:35:57.861Z,27.97
2018-12-14T07:38:33.664Z,28.03
2018-12-14T07:41:09.769Z,28.80
2018-12-14T07:43:45.423Z,27.90
2018-12-14T07:46:21.389Z,26.20
2018-12-14T07:48:57.080Z,25.43
2018-12-14T07:51:33.099Z,25.20
2018-12-14T07:54:09.085Z,24.27
2018-12-14T07:56:45.031Z,26.93
2018-12-14T07:59:20.984Z,24.87
2018-12-14T08:01:56.802Z,27.90
2018-12-14T08:04:33.187Z,26.93
2018-12-14T08:07:09.662Z,29.03
2018-12-14T08:09:46.118Z,26.90
2018-12-14T08:12:22.284Z,28.87
2018-12-14T08:14:57.871Z,27.77
2018-12-14T08:17:33.559Z,27.33
2018-12-14T08:20:09.404Z,26.97
2018-12-14T08:22:45.390Z,27.00
2018-12-14T08:25:21.197Z,26.83
2018-12-14T08:27:57.062Z,28.33
2018-12-14T08:30:32.646Z,28.03
2018-12-14T08:33:08.560Z,27.47
2018-12-14T08:35:44.911Z,29.57
2018-12-14T08:38:21.284Z,27.23
2018-12-14T08:40:57.122Z,26.80
2018-12-14T08:43:33.432Z,27.77
2018-12-14T08:46:10.232Z,28.83
2018-12-14T08:48:46.070Z,28.07
2018-12-14T08:51:22.517Z,26.53
2018-12-14T08:53:58.344Z,28.57
2018-12-14T08:56:34.242Z,27.73
2018-12-14T08:59:10.148Z,28.93
2018-12-14T09:01:45.985Z,29.40
2018-12-14T09:04:21.881Z,28.17
2018-12-14T09:06:57.906Z,27.63
2018-12-14T09:09:34.062Z,30.57
2018-12-14T09:12:10.481Z,24.40
2018-12-14T09:14:46.929Z,24.23
2018-12-14T09:17:23.211Z,25.17
2018-12-14T09:19:59.866Z,23.67
2018-12-14T09:22:35.571Z,24.17
2018-12-14T09:25:11.598Z,25.60
2018-12-14T09:27:47.598Z,23.77
2018-12-14T09:30:23.420Z,27.37
2018-12-14T09:32:59.572Z,24.67
2018-12-14T09:35:35.245Z,25.73
2018-12-14T09:38:10.893Z,25.87
2018-12-14T09:40:46.811Z,24.73
2018-12-14T09:43:22.516Z,23.13
2018-12-14T09:45:58.398Z,25.17
2018-12-14T09:48:34.345Z,25.93
2018-12-14T09:51:12.461Z,26.00
2018-12-14T09:53:48.558Z,24.87
2018-12-14T09:56:25.020Z,25.23
2018-12-14T09:59:01.428Z,24.90
2018-12-14T10:01:37.211Z,24.20
2018-12-14T10:04:13.227Z,25.73
2018-12-14T10:06:49.855Z,30.23
2018-12-14T10:09:25.647Z,29.20
2018-12-14T10:12:01.508Z,29.97
2018-12-14T10:14:37.193Z,34.03
2018-12-14T10:17:13.103Z,38.27
2018-12-14T10:19:49.067Z,34.67
2018-12-14T10:22:24.838Z,34.97
2018-12-14T10:25:00.608Z,36.10
2018-12-14T10:27:36.569Z,30.73
2018-12-14T10:30:12.296Z,34.33
2018-12-14T10:32:48.788Z,32.37
2018-12-14T10:35:25.743Z,32.83
2018-12-14T10:38:01.967Z,29.37
2018-12-14T10:40:38.524Z,28.43
2018-12-14T10:43:14.790Z,26.53
2018-12-14T10:45:50.888Z,30.17
2018-12-14T10:48:26.620Z,29.87
2018-12-14T10:51:03.168Z,27.93
2018-12-14T10:53:39.529Z,27.43
2018-12-14T10:56:15.692Z,27.30
2018-12-14T10:58:51.680Z,27.20
2018-12-14T11:01:32.485Z,26.70
2018-12-14T11:04:08.001Z,27.53
2018-12-14T11:06:43.946Z,28.27
2018-12-14T11:09:21.059Z,27.60
2018-12-14T11:11:57.724Z,26.27
2018-12-14T11:14:34.258Z,25.73
2018-12-14T11:17:10.313Z,27.53
2018-12-14T11:19:45.942Z,28.47
2018-12-14T11:22:21.991Z,26.27
2018-12-14T11:24:58.106Z,26.93
2018-12-14T11:27:33.843Z,27.40
2018-12-14T11:30:11.017Z,24.10
2018-12-14T11:32:47.532Z,23.93
2018-12-14T11:35:23.608Z,24.40
2018-12-14T11:37:59.249Z,25.40
2018-12-14T11:40:35.265Z,24.33
2018-12-14T11:43:11.033Z,24.97
2018-12-14T11:45:47.151Z,24.30
2018-12-14T11:48:23.764Z,24.10
2018-12-14T11:51:01.639Z,24.07
2018-12-14T11:53:37.661Z,23.43
2018-12-14T11:56:14.458Z,23.07
2018-12-14T11:58:50.472Z,23.07
2018-12-14T12:01:28.124Z,26.67
2018-12-14T12:04:03.860Z,23.87
2018-12-14T12:06:39.449Z,26.03
2018-12-14T12:09:16.461Z,23.20
2018-12-14T12:11:52.659Z,24.80
2018-12-14T12:14:28.259Z,23.27
2018-12-14T12:17:04.186Z,24.47
2018-12-14T12:19:40.368Z,25.03
2018-12-14T12:22:16.150Z,26.37
2018-12-14T12:24:52.031Z,24.03
2018-12-14T12:27:28.924Z,24.97
2018-12-14T12:30:05.806Z,25.33
2018-12-14T12:32:41.639Z,26.97
2018-12-14T12:35:17.411Z,24.47
2018-12-14T12:37:53.189Z,24.27
2018-12-14T12:40:28.987Z,24.20
2018-12-14T12:43:05.232Z,24.13
2018-12-14T12:45:41.833Z,24.23
2018-12-14T12:48:17.922Z,25.27
2018-12-14T12:50:53.743Z,27.63
2018-12-14T12:53:29.668Z,26.03
2018-12-14T12:56:06.278Z,24.20
2018-12-14T12:58:41.988Z,25.00
2018-12-14T13:01:18.025Z,25.83
2018-12-14T13:03:53.737Z,27.27
2018-12-14T13:06:29.634Z,28.43
2018-12-14T13:09:06.543Z,26.53
2018-12-14T13:11:42.537Z,27.03
2018-12-14T13:14:18.377Z,27.67
2018-12-14T13:16:54.319Z,29.07
2018-12-14T13:19:30.224Z,26.83
2018-12-14T13:22:06.236Z,28.87
2018-12-14T13:24:42.780Z,26.83
2018-12-14T13:27:20.397Z,27.93
2018-12-14T13:29:56.542Z,28.60
2018-12-14T13:32:32.625Z,28.43
2018-12-14T13:35:08.360Z,28.87
2018-12-14T13:37:44.170Z,27.80
2018-12-14T13:40:20.080Z,27.90
2018-12-14T13:42:55.790Z,31.70
2018-12-14T13:45:31.701Z,37.00
2018-12-14T13:48:09.288Z,28.23
2018-12-14T13:50:45.349Z,27.77
2018-12-14T13:53:21.884Z,29.23
2018-12-14T13:55:58.030Z,29.07
2018-12-14T13:58:34.520Z,25.80
2018-12-14T14:01:11.144Z,27.37
2018-12-14T14:03:47.008Z,26.47
2018-12-14T14:06:23.917Z,26.80
2018-12-14T14:09:01.353Z,26.83
2018-12-14T14:11:37.403Z,28.90
2018-12-14T14:14:13.384Z,30.73
2018-12-14T14:16:50.754Z,35.87
2018-12-14T14:19:27.710Z,38.77
2018-12-14T14:22:04.365Z,33.67
2018-12-14T14:24:41.151Z,30.03
2018-12-14T14:27:16.720Z,32.73
2018-12-14T14:29:52.943Z,29.30
2018-12-14T14:32:28.903Z,31.77
2018-12-14T14:35:05.714Z,28.10
2018-12-14T14:37:41.870Z,32.80
2018-12-14T14:40:17.687Z,31.33
2018-12-14T14:42:54.271Z,32.80
2018-12-14T14:45:30.398Z,27.57
2018-12-14T14:48:06.482Z,25.90
2018-12-14T14:50:42.545Z,26.30
2018-12-14T14:53:19.569Z,25.60
2018-12-14T14:55:56.013Z,28.60
2018-12-14T14:58:32.006Z,25.13
2018-12-14T15:01:08.145Z,29.17
2018-12-14T15:03:43.960Z,31.03
2018-12-14T15:06:19.762Z,29.77
2018-12-14T15:08:55.707Z,26.33
2018-12-14T15:11:31.382Z,23.33
2018-12-14T15:14:07.262Z,24.20
2018-12-14T15:16:43.185Z,25.07
2018-12-14T15:19:19.073Z,24.57
2018-12-14T15:21:54.996Z,24.47
2018-12-14T15:24:31.005Z,26.20
2018-12-14T15:27:07.687Z,23.37
2018-12-14T15:29:43.441Z,22.33
2018-12-14T15:32:19.435Z,21.97
2018-12-14T15:34:55.098Z,20.80
2018-12-14T15:37:31.393Z,20.30
2018-12-14T15:40:10.564Z,22.47
2018-12-14T15:42:47.976Z,21.33
2018-12-14T15:45:24.621Z,23.40
2018-12-14T15:48:00.636Z,23.53
2018-12-14T15:50:36.553Z,23.60
2018-12-14T15:53:12.364Z,22.23
2018-12-14T15:55:48.270Z,23.63
2018-12-14T15:58:24.105Z,22.60
2018-12-14T16:01:00.135Z,23.57
2018-12-14T16:03:37.187Z,23.07
2018-12-14T16:06:13.519Z,21.53
2018-12-14T16:08:50.319Z,22.57
2018-12-14T16:11:26.362Z,22.27
2018-12-14T16:14:02.980Z,21.47
2018-12-14T16:16:39.009Z,21.53
2018-12-14T16:19:15.803Z,20.87
2018-12-14T16:21:51.507Z,18.43
2018-12-14T16:24:27.148Z,18.80
2018-12-14T16:27:03.905Z,18.33
2018-12-14T16:29:40.478Z,17.47
2018-12-14T16:32:16.761Z,16.33
2018-12-14T16:35:07.265Z,17.03
2018-12-14T16:37:43.756Z,16.57
2018-12-14T16:40:19.942Z,16.47
2018-12-14T16:42:56.491Z,15.90
2018-12-14T16:45:32.430Z,16.90
2018-12-14T16:48:08.820Z,18.07
2018-12-14T16:50:45.511Z,16.80
2018-12-14T16:53:21.416Z,17.03
2018-12-14T16:55:56.886Z,18.80
2018-12-14T16:58:32.947Z,20.23
2018-12-14T17:01:09.679Z,17.90
2018-12-14T17:03:45.903Z,17.03
2018-12-14T17:06:22.882Z,19.03
2018-12-14T17:08:59.018Z,19.77
2018-12-14T17:11:35.475Z,18.40
2018-12-14T17:14:11.129Z,19.17
2018-12-14T17:16:47.415Z,17.10
2018-12-14T17:19:23.313Z,19.40
2018-12-14T17:21:58.970Z,18.23
2018-12-14T17:24:34.866Z,16.97
2018-12-14T17:27:10.862Z,18.93
2018-12-14T17:29:47.119Z,18.00
2018-12-14T17:32:24.255Z,19.30
2018-12-14T17:35:00.662Z,19.60
2018-12-14T17:37:37.146Z,17.30
2018-12-14T17:40:13.171Z,18.27
2018-12-14T17:42:52.001Z,18.30
2018-12-14T17:45:28.663Z,18.13
2018-12-14T17:48:05.953Z,21.60
2018-12-14T17:50:42.155Z,21.60
2018-12-14T17:53:18.916Z,21.90
2018-12-14T17:55:55.658Z,22.10
2018-12-14T17:58:31.528Z,22.57
2018-12-14T18:01:07.543Z,23.80
2018-12-14T18:03:43.472Z,22.67
2018-12-14T18:06:21.735Z,22.23
2018-12-14T18:08:58.108Z,24.70
2018-12-14T18:11:34.658Z,22.43
2018-12-14T18:14:11.083Z,22.13
2018-12-14T18:16:47.788Z,22.97
2018-12-14T18:19:24.272Z,22.03
2018-12-14T18:22:00.491Z,22.07
2018-12-14T18:24:37.838Z,21.93
2018-12-14T18:27:17.663Z,21.13
2018-12-14T18:29:54.822Z,21.13
2018-12-14T18:32:31.796Z,22.33
2018-12-14T18:35:11.751Z,23.07
2018-12-14T18:37:48.078Z,22.83
2018-12-14T18:40:23.918Z,21.73
2018-12-14T18:43:01.003Z,22.20
2018-12-14T18:45:37.071Z,21.40
2018-12-14T18:48:14.439Z,21.17
2018-12-14T18:50:50.856Z,20.57
2018-12-14T18:53:27.167Z,21.77
2018-12-14T18:56:04.453Z,24.10
2018-12-14T18:58:41.882Z,24.13
2018-12-14T19:01:18.464Z,22.40
2018-12-14T19:03:57.257Z,24.50
2018-12-14T19:06:34.412Z,23.93
2018-12-14T19:09:10.973Z,23.63
2018-12-14T19:11:49.227Z,27.30
2018-12-14T19:14:25.445Z,25.50
2018-12-14T19:17:02.203Z,25.47
2018-12-14T19:19:39.286Z,25.17
2018-12-14T19:22:15.190Z,24.17
2018-12-14T19:24:51.310Z,24.70
2018-12-14T19:27:27.529Z,24.20
2018-12-14T19:30:04.875Z,26.37
2018-12-14T19:32:40.640Z,26.00
2018-12-14T19:35:18.502Z,26.60
2018-12-14T19:37:54.540Z,26.10
2018-12-14T19:40:31.039Z,26.27
2018-12-14T19:43:07.003Z,25.53
2018-12-14T19:45:43.767Z,26.20
2018-12-14T19:48:20.243Z,26.03
2018-12-14T19:50:56.220Z,26.17
2018-12-14T19:53:31.940Z,26.00
2018-12-14T19:56:07.749Z,27.90
2018-12-14T19:58:43.732Z,27.93
2018-12-14T20:01:19.597Z,28.63
2018-12-14T20:03:55.151Z,33.33
2018-12-14T20:06:31.359Z,30.57
2018-12-14T20:09:08.181Z,29.27
2018-12-14T20:11:44.379Z,32.10
2018-12-14T20:14:20.888Z,32.93
2018-12-14T20:16:56.846Z,48.23
2018-12-14T20:19:33.320Z,31.67
2018-12-14T20:22:10.022Z,31.30
2018-12-14T20:24:46.326Z,32.47
2018-12-14T20:27:23.355Z,32.27
2018-12-14T20:30:03.395Z,32.17
2018-12-14T20:32:42.595Z,32.77
2018-12-14T20:35:23.524Z,30.53
2018-12-14T20:38:01.160Z,31.57
2018-12-14T20:40:40.481Z,29.97
2018-12-14T20:43:18.224Z,31.73
2018-12-14T20:45:55.130Z,30.23
2018-12-14T20:48:32.479Z,31.13
2018-12-14T20:51:11.630Z,30.67
2018-12-14T20:53:51.679Z,32.63
2018-12-14T20:56:31.624Z,31.87
2018-12-14T20:59:08.928Z,47.63
2018-12-14T21:01:45.745Z,36.50
2018-12-14T21:04:24.285Z,31.77
2018-12-14T21:07:03.930Z,31.83
2018-12-14T21:09:42.192Z,32.17
2018-12-14T21:12:18.966Z,31.00
2018-12-14T21:14:54.679Z,31.53
2018-12-14T21:17:32.369Z,33.13
2018-12-14T21:20:10.933Z,32.60
2018-12-14T21:22:50.348Z,33.83
2018-12-14T21:25:28.830Z,29.60
2018-12-14T21:28:07.421Z,31.03
2018-12-14T21:30:44.760Z,30.33
2018-12-14T21:33:27.611Z,31.70
2018-12-14T21:36:05.486Z,33.17
2018-12-14T21:38:46.141Z,33.27
2018-12-14T21:41:26.523Z,34.23
2018-12-14T21:44:09.657Z,34.67
2018-12-14T21:47:04.928Z,30.50
2018-12-14T21:49:54.107Z,32.50
2018-12-14T21:52:31.667Z,32.50
2018-12-14T21:55:08.976Z,33.73
2018-12-14T21:57:52.517Z,33.77
2018-12-14T22:00:28.629Z,32.07
2018-12-14T22:03:08.044Z,30.57
2018-12-14T22:05:47.207Z,31.17
2018-12-14T22:08:27.647Z,31.70
2018-12-14T22:11:05.918Z,32.77
2018-12-14T22:13:42.552Z,31.30
2018-12-14T22:16:18.504Z,33.70
2018-12-14T22:18:54.317Z,35.73
2018-12-14T22:21:30.095Z,35.80
2018-12-14T22:24:05.945Z,34.00
2018-12-14T22:26:41.877Z,34.63
2018-12-14T22:29:17.613Z,34.27
2018-12-14T22:31:53.522Z,34.13
2018-12-14T22:34:29.447Z,35.50
2018-12-14T22:37:05.524Z,34.27
2018-12-14T22:39:41.814Z,37.27
2018-12-14T22:42:18.298Z,35.23
2018-12-14T22:44:54.103Z,37.57
2018-12-14T22:47:30.290Z,36.63
2018-12-14T22:50:06.161Z,39.57
2018-12-14T22:52:42.566Z,37.90
2018-12-14T22:55:18.608Z,37.67
2018-12-14T22:57:55.194Z,39.80
2018-12-14T23:00:31.536Z,36.60
2018-12-14T23:03:10.236Z,37.90
2018-12-14T23:05:47.773Z,37.23
2018-12-14T23:08:23.577Z,37.63
2018-12-14T23:10:59.938Z,36.27
2018-12-14T23:13:35.690Z,38.17
2018-12-14T23:16:11.656Z,39.90
2018-12-14T23:18:48.208Z,40.13
2018-12-14T23:21:24.196Z,39.80
2018-12-14T23:24:01.026Z,40.80
2018-12-14T23:26:37.060Z,38.53
2018-12-14T23:29:13.195Z,42.50
2018-12-14T23:31:48.991Z,38.10
2018-12-14T23:34:24.840Z,39.17
2018-12-14T23:37:01.364Z,38.93
2018-12-14T23:39:37.719Z,41.17
2018-12-14T23:42:13.718Z,43.60
2018-12-14T23:44:49.725Z,37.27
2018-12-14T23:47:25.735Z,38.13
2018-12-14T23:50:03.193Z,38.97
2018-12-14T23:52:39.733Z,36.37
2018-12-14T23:55:15.927Z,41.77
2018-12-14T23:57:51.714Z,37.83
